Terminal Aerodrome Forecast
Issued by NWS

Home | Current Version | Previous Version | Text Only | Print | Product List | Glossary On
Versions: 1 2 3 4 5 6 7 8 9 10 11 12
144
FTUS46 KSGX 061257
TAFCRQ
TAF
KCRQ 061257Z 0612/0712 VRB03KT P6SM SKC WS010/07025KT
     FM061900 27007KT P6SM SKC
     FM070200 VRB03KT P6SM SKC
     FM070700 07010KT P6SM SKC=

USA.gov is the U.S. government's official web portal to all federal, state and local government web resources and services.